createdAt,value
2018-02-20T00:00:10.505Z,97285
2018-02-20T00:02:37.182Z,97283
2018-02-20T00:05:03.905Z,97278
2018-02-20T00:07:30.597Z,97278
2018-02-20T00:09:58.036Z,97269
2018-02-20T00:12:24.719Z,97266
2018-02-20T00:14:52.141Z,97258
2018-02-20T00:17:18.827Z,97246
2018-02-20T00:19:45.679Z,97252
2018-02-20T00:22:15.228Z,97245
2018-02-20T00:24:41.926Z,97241
2018-02-20T00:27:09.359Z,97244
2018-02-20T00:29:36.801Z,97239
2018-02-20T00:32:03.506Z,97237
2018-02-20T00:34:30.216Z,97234
2018-02-20T00:36:57.675Z,97227
2018-02-20T00:39:25.093Z,97227
2018-02-20T00:41:51.814Z,97225
2018-02-20T00:44:18.538Z,97218
2018-02-20T00:46:45.980Z,97221
2018-02-20T00:49:13.431Z,97213
2018-02-20T00:51:40.163Z,97210
2018-02-20T00:54:06.862Z,97208
2018-02-20T00:56:33.561Z,97211
2018-02-20T00:59:00.339Z,97203
2018-02-20T01:01:27.758Z,97204
2018-02-20T01:03:54.438Z,97200
2018-02-20T01:06:21.881Z,97194
2018-02-20T01:08:49.296Z,97193
2018-02-20T01:11:16.039Z,97192
2018-02-20T01:13:42.732Z,97192
2018-02-20T01:16:10.153Z,97189
2018-02-20T01:18:36.883Z,97192
2018-02-20T01:21:03.565Z,97185
2018-02-20T01:23:30.286Z,97181
2018-02-20T01:25:56.970Z,97178
2018-02-20T01:28:24.391Z,97176
2018-02-20T01:30:51.135Z,97183
2018-02-20T01:33:17.875Z,97175
2018-02-20T01:35:44.586Z,97174
2018-02-20T01:38:11.335Z,97172
2018-02-20T01:40:38.057Z,97173
2018-02-20T01:43:05.507Z,97165
2018-02-20T01:45:32.916Z,97165
2018-02-20T01:47:59.709Z,97159
2018-02-20T01:50:27.168Z,97163
2018-02-20T01:52:54.611Z,97157
2018-02-20T01:55:21.309Z,97157
2018-02-20T01:57:48.006Z,97153
2018-02-20T02:00:14.764Z,97145
2018-02-20T02:02:42.211Z,97143
2018-02-20T02:05:08.947Z,97148
2018-02-20T02:07:35.663Z,97148
2018-02-20T02:10:02.410Z,97145
2018-02-20T02:12:29.391Z,97142
2018-02-20T02:14:56.076Z,97134
2018-02-20T02:17:22.770Z,97138
2018-02-20T02:19:49.853Z,97140
2018-02-20T02:22:17.368Z,97134
2018-02-20T02:24:44.063Z,97142
2018-02-20T02:27:11.489Z,97138
2018-02-20T02:29:38.440Z,97135
2018-02-20T02:32:05.140Z,97132
2018-02-20T02:34:31.840Z,97130
2018-02-20T02:36:59.272Z,97128
2018-02-20T02:39:25.974Z,97129
2018-02-20T02:41:52.621Z,97125
2018-02-20T02:44:19.301Z,97131
2018-02-20T02:46:45.994Z,97131
2018-02-20T02:49:13.434Z,97128
2018-02-20T02:51:40.874Z,97125
2018-02-20T02:54:07.577Z,97126
2018-02-20T02:56:34.271Z,97125
2018-02-20T02:59:07.971Z,97121
2018-02-20T03:01:34.671Z,97120
2018-02-20T03:04:01.380Z,97114
2018-02-20T03:06:28.830Z,97112
2018-02-20T03:08:55.543Z,97113
2018-02-20T03:11:22.224Z,97113
2018-02-20T03:13:49.627Z,97113
2018-02-20T03:16:16.317Z,97101
2018-02-20T03:18:43.016Z,97103
2018-02-20T03:21:09.720Z,97100
2018-02-20T03:23:37.265Z,97096
2018-02-20T03:26:03.928Z,97104
2018-02-20T03:28:31.367Z,97100
2018-02-20T03:30:58.035Z,97097
2018-02-20T03:33:24.742Z,97096
2018-02-20T03:35:51.474Z,97099
2018-02-20T03:38:18.322Z,97093
2018-02-20T03:40:45.047Z,97092
2018-02-20T03:43:11.947Z,97089
2018-02-20T03:45:39.414Z,97088
2018-02-20T03:48:06.942Z,97088
2018-02-20T03:50:33.634Z,97086
2018-02-20T03:53:01.430Z,97083
2018-02-20T03:55:28.124Z,97083
2018-02-20T03:57:55.563Z,97082
2018-02-20T04:00:26.110Z,97075
2018-02-20T04:02:52.784Z,97078
2018-02-20T04:05:20.223Z,97076
2018-02-20T04:07:47.768Z,97076
2018-02-20T04:10:14.502Z,97073
2018-02-20T04:12:41.190Z,97072
2018-02-20T04:15:08.668Z,97074
2018-02-20T04:17:35.892Z,97074
2018-02-20T04:20:03.358Z,97067
2018-02-20T04:22:30.823Z,97070
2018-02-20T04:27:31.623Z,97065
2018-02-20T04:29:58.302Z,97067
2018-02-20T04:32:25.733Z,97066
2018-02-20T04:34:52.417Z,97067
2018-02-20T04:37:19.128Z,97063
2018-02-20T04:39:45.809Z,97063
2018-02-20T04:42:13.224Z,97065
2018-02-20T04:44:39.903Z,97064
2018-02-20T04:47:06.577Z,97061
2018-02-20T04:49:34.128Z,97063
2018-02-20T04:52:01.568Z,97057
2018-02-20T04:54:28.260Z,97058
2018-02-20T04:56:54.936Z,97058
2018-02-20T04:59:21.774Z,97059
2018-02-20T05:01:48.476Z,97056
2018-02-20T05:04:15.867Z,97058
2018-02-20T05:06:42.570Z,97057
2018-02-20T05:09:10.006Z,97053
2018-02-20T05:11:36.664Z,97053
2018-02-20T05:14:04.090Z,97045
2018-02-20T05:16:30.778Z,97048
2018-02-20T05:18:58.186Z,97047
2018-02-20T05:21:24.895Z,97057
2018-02-20T05:23:51.554Z,97052
2018-02-20T05:26:18.247Z,97052
2018-02-20T05:28:45.687Z,97048
2018-02-20T05:31:12.377Z,97052
2018-02-20T05:33:39.050Z,97054
2018-02-20T05:36:05.719Z,97056
2018-02-20T05:38:32.398Z,97056
2018-02-20T05:40:59.850Z,97054
2018-02-20T05:43:27.336Z,97057
2018-02-20T05:45:54.120Z,97059
2018-02-20T05:48:20.845Z,97056
2018-02-20T05:50:47.541Z,97056
2018-02-20T05:53:14.998Z,97055
2018-02-20T05:55:42.436Z,97060
2018-02-20T05:58:09.123Z,97066
2018-02-20T06:00:35.826Z,97056
2018-02-20T06:03:02.558Z,97059
2018-02-20T06:05:29.251Z,97055
2018-02-20T06:07:56.660Z,97055
2018-02-20T06:10:23.459Z,97053
2018-02-20T06:12:50.134Z,97055
2018-02-20T06:15:16.803Z,97048
2018-02-20T06:17:43.619Z,97050
2018-02-20T06:20:10.295Z,97054
2018-02-20T06:22:36.966Z,97049
2018-02-20T06:25:04.386Z,97050
2018-02-20T06:27:31.690Z,97048
2018-02-20T06:29:58.387Z,97040
2018-02-20T06:32:25.053Z,97038
2018-02-20T06:34:51.746Z,97037
2018-02-20T06:37:18.399Z,97044
2018-02-20T06:39:45.084Z,97041
2018-02-20T06:42:12.523Z,97040
2018-02-20T06:44:39.243Z,97044
2018-02-20T06:47:05.945Z,97040
2018-02-20T06:49:33.392Z,97044
2018-02-20T06:52:00.818Z,97038
2018-02-20T06:54:27.517Z,97039
2018-02-20T06:56:54.191Z,97041
2018-02-20T06:59:21.142Z,97036
2018-02-20T07:01:48.394Z,97039
2018-02-20T07:04:15.066Z,97039
2018-02-20T07:06:42.928Z,97047
2018-02-20T07:09:09.702Z,97045
2018-02-20T07:11:37.209Z,97038
2018-02-20T07:14:04.071Z,97043
2018-02-20T07:16:30.804Z,97046
2018-02-20T07:18:57.483Z,97039
2018-02-20T07:21:24.162Z,97045
2018-02-20T07:23:50.879Z,97046
2018-02-20T07:26:17.588Z,97047
2018-02-20T07:28:44.268Z,97046
2018-02-20T07:31:11.783Z,97056
2018-02-20T07:33:38.447Z,97049
2018-02-20T07:36:05.152Z,97050
2018-02-20T07:38:31.820Z,97051
2018-02-20T07:40:58.485Z,97050
2018-02-20T07:43:25.191Z,97050
2018-02-20T07:45:51.882Z,97050
2018-02-20T07:48:19.347Z,97049
2018-02-20T07:50:46.188Z,97051
2018-02-20T07:53:12.861Z,97050
2018-02-20T07:55:39.582Z,97053
2018-02-20T07:58:07.030Z,97052
2018-02-20T08:00:33.754Z,97053
2018-02-20T08:03:00.428Z,97052
2018-02-20T08:05:27.134Z,97052
2018-02-20T08:07:53.845Z,97052
2018-02-20T08:10:20.550Z,97046
2018-02-20T08:12:47.258Z,97040
2018-02-20T08:15:15.014Z,97042
2018-02-20T08:17:41.770Z,97041
2018-02-20T08:20:08.491Z,97044
2018-02-20T08:22:36.910Z,97050
2018-02-20T08:25:05.410Z,97048
2018-02-20T08:27:33.780Z,97052
2018-02-20T08:30:02.162Z,97048
2018-02-20T08:32:34.241Z,97048
2018-02-20T08:35:02.677Z,97049
2018-02-20T08:37:31.042Z,97045
2018-02-20T08:39:59.361Z,97045
2018-02-20T08:42:30.189Z,97043
2018-02-20T08:44:58.511Z,97044
2018-02-20T08:47:26.853Z,97043
2018-02-20T08:49:55.194Z,97043
2018-02-20T08:52:23.542Z,97045
2018-02-20T08:54:51.892Z,97045
2018-02-20T08:57:20.225Z,97046
2018-02-20T08:59:48.609Z,97046
2018-02-20T09:02:16.931Z,97048
2018-02-20T09:04:45.361Z,97046
2018-02-20T09:07:13.714Z,97046
2018-02-20T09:09:42.026Z,97041
2018-02-20T09:12:10.419Z,97038
2018-02-20T09:14:38.741Z,97033
2018-02-20T09:17:07.146Z,97031
2018-02-20T09:19:35.534Z,97031
2018-02-20T09:22:02.752Z,97029
2018-02-20T09:24:30.246Z,97032
2018-02-20T09:26:58.650Z,97033
2018-02-20T09:29:27.019Z,97032
2018-02-20T09:31:54.127Z,97033
2018-02-20T09:34:21.547Z,97038
2018-02-20T09:36:48.236Z,97034
2018-02-20T09:39:15.670Z,97033
2018-02-20T09:41:42.390Z,97035
2018-02-20T09:44:09.139Z,97028
2018-02-20T09:46:35.859Z,97030
2018-02-20T09:49:02.550Z,97032
2018-02-20T09:51:29.269Z,97035
2018-02-20T09:53:55.972Z,97030
2018-02-20T09:56:22.725Z,97027
2018-02-20T09:58:49.430Z,97035
2018-02-20T10:01:16.909Z,97033
2018-02-20T10:03:43.599Z,97028
2018-02-20T10:06:10.283Z,97025
2018-02-20T10:08:37.750Z,97027
2018-02-20T10:11:05.175Z,97023
2018-02-20T10:13:31.863Z,97029
2018-02-20T10:15:58.576Z,97024
2018-02-20T10:18:25.330Z,97021
2018-02-20T10:20:52.786Z,97018
2018-02-20T10:23:20.635Z,97019
2018-02-20T10:25:47.348Z,97012
2018-02-20T10:28:14.034Z,97012
2018-02-20T10:30:40.729Z,97009
2018-02-20T10:33:07.503Z,97004
2018-02-20T10:35:34.186Z,97002
2018-02-20T10:38:01.626Z,96997
2018-02-20T10:40:28.306Z,96994
2018-02-20T10:42:54.957Z,96988
2018-02-20T10:45:21.664Z,96990
2018-02-20T10:47:48.352Z,96985
2018-02-20T10:50:15.069Z,96977
2018-02-20T10:52:42.695Z,96984
2018-02-20T10:55:09.443Z,96983
2018-02-20T10:57:36.139Z,96971
2018-02-20T11:00:03.088Z,96972
2018-02-20T11:02:29.870Z,96969
2018-02-20T11:04:56.772Z,96969
2018-02-20T11:07:23.560Z,96970
2018-02-20T11:09:50.311Z,96967
2018-02-20T11:12:17.063Z,96965
2018-02-20T11:14:43.774Z,96960
2018-02-20T11:17:10.530Z,96966
2018-02-20T11:19:38.141Z,96961
2018-02-20T11:22:05.631Z,96961
2018-02-20T11:24:32.402Z,96956
2018-02-20T11:26:59.223Z,96945
2018-02-20T11:29:25.918Z,96944
2018-02-20T11:31:52.739Z,96942
2018-02-20T11:34:19.463Z,96946
2018-02-20T11:36:46.208Z,96939
2018-02-20T11:39:12.965Z,96940
2018-02-20T11:41:39.710Z,96935
2018-02-20T11:44:06.366Z,96933
2018-02-20T11:46:33.122Z,96930
2018-02-20T11:48:59.838Z,96932
2018-02-20T11:51:26.832Z,96928
2018-02-20T11:53:53.513Z,96933
2018-02-20T11:56:20.276Z,96928
2018-02-20T11:58:47.043Z,96927
2018-02-20T12:01:13.910Z,96924
2018-02-20T12:03:40.604Z,96926
2018-02-20T12:06:07.371Z,96917
2018-02-20T12:08:34.157Z,96918
2018-02-20T12:11:01.590Z,96919
2018-02-20T12:13:28.331Z,96914
2018-02-20T12:15:55.051Z,96915
2018-02-20T12:18:21.811Z,96912
2018-02-20T12:20:48.614Z,96905
2018-02-20T12:23:16.457Z,96903
2018-02-20T12:25:43.901Z,96902
2018-02-20T12:28:10.624Z,96903
2018-02-20T12:30:37.340Z,96901
2018-02-20T12:33:04.007Z,96901
2018-02-20T12:35:30.702Z,96896
2018-02-20T12:37:58.158Z,96899
2018-02-20T12:40:25.730Z,96898
2018-02-20T12:42:52.440Z,96893
2018-02-20T12:45:19.186Z,96892
2018-02-20T12:47:45.954Z,96891
2018-02-20T12:50:13.452Z,96894
2018-02-20T12:52:40.165Z,96889
2018-02-20T12:55:07.619Z,96889
2018-02-20T12:57:35.067Z,96888
2018-02-20T13:00:01.755Z,96885
2018-02-20T13:02:28.460Z,96885
2018-02-20T13:04:55.894Z,96883
2018-02-20T13:07:22.661Z,96880
2018-02-20T13:09:49.376Z,96881
2018-02-20T13:12:16.119Z,96885
2018-02-20T13:14:42.830Z,96885
2018-02-20T13:17:09.590Z,96882
2018-02-20T13:19:36.393Z,96875
2018-02-20T13:22:03.867Z,96871
2018-02-20T13:24:31.338Z,96873
2018-02-20T13:26:58.041Z,96876
2018-02-20T13:29:24.737Z,96885
2018-02-20T13:31:51.446Z,96881
2018-02-20T13:34:18.916Z,96882
2018-02-20T13:36:46.403Z,96880
2018-02-20T13:39:13.088Z,96874
2018-02-20T13:41:43.786Z,96881
2018-02-20T13:44:10.612Z,96880
2018-02-20T13:46:38.402Z,96879
2018-02-20T13:49:05.186Z,96877
2018-02-20T13:51:31.906Z,96879
2018-02-20T13:53:58.611Z,96885
2018-02-20T13:56:25.343Z,96882
2018-02-20T13:58:52.800Z,96873
2018-02-20T14:01:19.577Z,96879
2018-02-20T14:03:46.280Z,96874
2018-02-20T14:06:12.939Z,96873
2018-02-20T14:08:40.392Z,96871
2018-02-20T14:11:07.891Z,96880
2018-02-20T14:13:34.602Z,96874
2018-02-20T14:16:02.008Z,96879
2018-02-20T14:18:28.729Z,96878
2018-02-20T14:20:55.480Z,96883
2018-02-20T14:23:23.243Z,96884
2018-02-20T14:25:50.039Z,96880
2018-02-20T14:28:16.733Z,96874
2018-02-20T14:30:43.510Z,96876
2018-02-20T14:33:11.269Z,96874
2018-02-20T14:35:38.136Z,96871
2018-02-20T14:38:04.956Z,96871
2018-02-20T14:40:31.705Z,96877
2018-02-20T14:42:58.422Z,96874
2018-02-20T14:45:25.123Z,96876
2018-02-20T14:47:51.869Z,96872
2018-02-20T14:50:18.625Z,96877
2018-02-20T14:52:45.346Z,96872
2018-02-20T14:55:13.045Z,96872
2018-02-20T14:57:40.510Z,96867
2018-02-20T15:00:07.970Z,96869
2018-02-20T15:02:35.420Z,96869
2018-02-20T15:05:02.975Z,96872
2018-02-20T15:07:29.688Z,96873
2018-02-20T15:09:56.509Z,96870
2018-02-20T15:12:23.276Z,96877
2018-02-20T15:14:50.044Z,96876
2018-02-20T15:17:16.737Z,96877
2018-02-20T15:19:43.562Z,96877
2018-02-20T15:22:11.045Z,96876
2018-02-20T15:24:37.771Z,96878
2018-02-20T15:27:05.330Z,96876
2018-02-20T15:29:32.850Z,96882
2018-02-20T15:31:59.549Z,96876
2018-02-20T15:34:26.997Z,96886
2018-02-20T15:36:54.456Z,96888
2018-02-20T15:39:21.927Z,96888
2018-02-20T15:41:48.742Z,96889
2018-02-20T15:44:15.454Z,96892
2018-02-20T15:46:42.167Z,96897
2018-02-20T15:49:09.610Z,96899
2018-02-20T15:51:36.424Z,96903
2018-02-20T15:54:03.128Z,96902
2018-02-20T15:56:29.843Z,96907
2018-02-20T15:58:57.375Z,96911
2018-02-20T16:01:24.069Z,96907
2018-02-20T16:03:51.032Z,96910
2018-02-20T16:06:17.753Z,96909
2018-02-20T16:08:45.240Z,96914
2018-02-20T16:11:11.987Z,96909
2018-02-20T16:13:38.787Z,96911
2018-02-20T16:16:20.399Z,96911
2018-02-20T16:18:47.916Z,96908
2018-02-20T16:21:14.668Z,96913
2018-02-20T16:23:41.421Z,96909
2018-02-20T16:26:09.407Z,96915
2018-02-20T16:28:36.959Z,96916
2018-02-20T16:31:03.719Z,96919
2018-02-20T16:33:31.311Z,96914
2018-02-20T16:35:58.163Z,96919
2018-02-20T16:38:24.986Z,96918
2018-02-20T16:40:51.760Z,96919
2018-02-20T16:43:18.579Z,96913
2018-02-20T16:45:46.089Z,96914
2018-02-20T16:48:12.901Z,96913
2018-02-20T16:50:39.646Z,96918
2018-02-20T16:53:06.349Z,96920
2018-02-20T16:55:33.366Z,96922
2018-02-20T16:58:00.174Z,96930
2018-02-20T17:00:27.703Z,96926
2018-02-20T17:02:54.439Z,96929
2018-02-20T17:05:21.187Z,96928
2018-02-20T17:07:47.878Z,96935
2018-02-20T17:10:14.601Z,96935
2018-02-20T17:12:42.064Z,96937
2018-02-20T17:15:09.553Z,96938
2018-02-20T17:17:36.241Z,96940
2018-02-20T17:20:03.055Z,96936
2018-02-20T17:22:29.818Z,96938
2018-02-20T17:24:56.489Z,96944
2018-02-20T17:27:23.217Z,96939
2018-02-20T17:29:49.921Z,96932
2018-02-20T17:32:16.671Z,96937
2018-02-20T17:34:43.362Z,96933
2018-02-20T17:37:10.098Z,96936
2018-02-20T17:39:36.827Z,96936
2018-02-20T17:42:03.518Z,96942
2018-02-20T17:44:30.963Z,96947
2018-02-20T17:46:58.443Z,96948
2018-02-20T17:49:25.202Z,96949
2018-02-20T17:51:51.931Z,96951
2018-02-20T17:54:19.457Z,96950
2018-02-20T17:56:46.149Z,96953
2018-02-20T17:59:12.908Z,96953
2018-02-20T18:01:39.624Z,96958
2018-02-20T18:04:07.054Z,96958
2018-02-20T18:06:33.894Z,96957
2018-02-20T18:09:00.707Z,96962
2018-02-20T18:11:27.442Z,96959
2018-02-20T18:13:55.340Z,96960
2018-02-20T18:16:22.860Z,96962
2018-02-20T18:18:50.390Z,96962
2018-02-20T18:21:17.062Z,96962
2018-02-20T18:23:44.574Z,96960
2018-02-20T18:26:11.329Z,96963
2018-02-20T18:28:38.023Z,96961
2018-02-20T18:31:04.761Z,96968
2018-02-20T18:33:31.495Z,96965
2018-02-20T18:35:58.965Z,96967
2018-02-20T18:38:26.358Z,96973
2018-02-20T18:40:53.051Z,96977
2018-02-20T18:43:20.538Z,96974
2018-02-20T18:45:47.288Z,96977
2018-02-20T18:48:14.055Z,96981
2018-02-20T18:50:40.781Z,96988
2018-02-20T18:53:07.523Z,96993
2018-02-20T18:55:34.311Z,96988
2018-02-20T18:58:01.057Z,96991
2018-02-20T19:00:27.800Z,96992
2018-02-20T19:02:54.561Z,96991
2018-02-20T19:05:21.284Z,96995
2018-02-20T19:07:48.049Z,96990
2018-02-20T19:10:15.487Z,96994
2018-02-20T19:12:42.200Z,96994
2018-02-20T19:15:08.966Z,96999
2018-02-20T19:17:35.757Z,96998
2018-02-20T19:20:03.235Z,97004
2018-02-20T19:22:29.984Z,97003
2018-02-20T19:24:56.684Z,97001
2018-02-20T19:27:23.415Z,97003
2018-02-20T19:29:50.220Z,97006
2018-02-20T19:32:16.999Z,97002
2018-02-20T19:34:44.541Z,97002
2018-02-20T19:37:11.245Z,96998
2018-02-20T19:39:38.730Z,97000
2018-02-20T19:42:05.466Z,96993
2018-02-20T19:44:32.898Z,96991
2018-02-20T19:47:00.695Z,96989
2018-02-20T19:49:27.399Z,96993
2018-02-20T19:51:54.156Z,96997
2018-02-20T19:54:20.862Z,96998
2018-02-20T19:56:47.585Z,97000
2018-02-20T19:59:14.389Z,96998
2018-02-20T20:01:41.157Z,97003
2018-02-20T20:04:10.718Z,97002
2018-02-20T20:06:37.517Z,96998
2018-02-20T20:09:04.423Z,97010
2018-02-20T20:11:31.173Z,97014
2018-02-20T20:13:58.005Z,97012
2018-02-20T20:16:24.890Z,97017
2018-02-20T20:18:52.331Z,97019
2018-02-20T20:21:22.393Z,97023
2018-02-20T20:23:49.136Z,97023
2018-02-20T20:26:15.874Z,97023
2018-02-20T20:28:42.632Z,97019
2018-02-20T20:31:09.347Z,97018
2018-02-20T20:33:42.524Z,97017
2018-02-20T20:36:09.352Z,97021
2018-02-20T20:38:36.107Z,97017
2018-02-20T20:41:02.904Z,97019
2018-02-20T20:43:29.618Z,97019
2018-02-20T20:45:57.079Z,97017
2018-02-20T20:48:24.622Z,97024
2018-02-20T20:50:51.433Z,97019
2018-02-20T20:53:18.232Z,97024
2018-02-20T20:55:45.668Z,97027
2018-02-20T20:58:12.518Z,97017
2018-02-20T21:00:39.402Z,97027
2018-02-20T21:03:06.910Z,97024
2018-02-20T21:05:33.802Z,97025
2018-02-20T21:08:01.296Z,97022
2018-02-20T21:10:28.025Z,97019
2018-02-20T21:12:54.709Z,97017
2018-02-20T21:15:21.406Z,97014
2018-02-20T21:17:48.863Z,97017
2018-02-20T21:20:16.337Z,97020
2018-02-20T21:22:44.241Z,97015
2018-02-20T21:25:11.118Z,97016
2018-02-20T21:27:37.922Z,97016
2018-02-20T21:30:04.646Z,97017
2018-02-20T21:32:31.395Z,97017
2018-02-20T21:34:58.157Z,97015
2018-02-20T21:37:24.912Z,97013
2018-02-20T21:39:51.710Z,97016
2018-02-20T21:42:18.536Z,97018
2018-02-20T21:44:45.371Z,97019
2018-02-20T21:47:12.183Z,97019
2018-02-20T21:49:38.927Z,97019
2018-02-20T21:52:05.684Z,97021
2018-02-20T21:54:32.378Z,97016
2018-02-20T21:56:59.948Z,97017
2018-02-20T21:59:27.383Z,97019
2018-02-20T22:01:55.502Z,97014
2018-02-20T22:04:22.282Z,97013
2018-02-20T22:06:49.166Z,97013
2018-02-20T22:09:16.942Z,97013
2018-02-20T22:11:44.427Z,97014
2018-02-20T22:14:11.145Z,97015
2018-02-20T22:16:38.579Z,97017
2018-02-20T22:19:05.272Z,97019
2018-02-20T22:21:31.996Z,97019
2018-02-20T22:23:59.428Z,97026
2018-02-20T22:26:26.164Z,97023
2018-02-20T22:28:52.864Z,97022
2018-02-20T22:31:26.571Z,97012
2018-02-20T22:33:53.304Z,97021
2018-02-20T22:36:20.013Z,97022
2018-02-20T22:38:46.747Z,97018
2018-02-20T22:41:13.448Z,97018
2018-02-20T22:43:40.140Z,97021
2018-02-20T22:46:06.835Z,97015
2018-02-20T22:48:33.534Z,97016
2018-02-20T22:51:00.239Z,97016
2018-02-20T22:53:26.912Z,97020
2018-02-20T22:55:53.588Z,97021
2018-02-20T22:58:21.028Z,97022
2018-02-20T23:00:47.692Z,97021
2018-02-20T23:03:15.139Z,97018
2018-02-20T23:05:42.591Z,97027
2018-02-20T23:08:09.297Z,97029
2018-02-20T23:10:36.057Z,97028
2018-02-20T23:13:02.766Z,97029
2018-02-20T23:15:29.481Z,97024
2018-02-20T23:17:56.915Z,97023
2018-02-20T23:20:23.575Z,97024
2018-02-20T23:22:51.055Z,97023
2018-02-20T23:25:17.758Z,97024
2018-02-20T23:27:44.444Z,97019
2018-02-20T23:30:11.150Z,97025
2018-02-20T23:32:37.846Z,97023
2018-02-20T23:35:04.539Z,97019
2018-02-20T23:37:31.231Z,97021
2018-02-20T23:39:57.938Z,97027
2018-02-20T23:42:25.364Z,97025
2018-02-20T23:44:52.026Z,97029
2018-02-20T23:47:18.743Z,97029
2018-02-20T23:49:45.386Z,97031
2018-02-20T23:52:12.062Z,97034
2018-02-20T23:54:38.712Z,97032
2018-02-20T23:57:05.383Z,97038
2018-02-20T23:59:32.720Z,97035
